createdAt,value
2022-11-21T00:01:16.576Z,1.00
2022-11-21T00:03:44.351Z,1.20
2022-11-21T00:06:13.510Z,1.00
2022-11-21T00:08:41.199Z,1.90
2022-11-21T00:11:08.927Z,1.00
2022-11-21T00:13:37.121Z,1.60
2022-11-21T00:16:05.681Z,0.80
2022-11-21T00:18:34.456Z,1.50
2022-11-21T00:21:05.741Z,1.30
2022-11-21T00:23:34.923Z,1.17
2022-11-21T00:26:05.712Z,1.73
2022-11-21T00:28:33.478Z,1.20
2022-11-21T00:31:01.139Z,2.23
2022-11-21T00:33:28.880Z,0.80
2022-11-21T00:35:56.608Z,0.80
2022-11-21T00:38:25.143Z,0.87
2022-11-21T00:40:54.111Z,0.80
2022-11-21T00:43:21.767Z,2.00
2022-11-21T00:45:49.432Z,2.03
2022-11-21T00:48:17.078Z,0.80
2022-11-21T00:50:45.002Z,1.90
2022-11-21T00:53:12.888Z,0.77
2022-11-21T00:55:40.552Z,0.80
2022-11-21T00:58:09.595Z,1.13
2022-11-21T01:00:37.302Z,2.30
2022-11-21T01:03:04.968Z,2.30
2022-11-21T01:05:33.225Z,1.57
2022-11-21T01:08:00.872Z,1.33
2022-11-21T01:10:28.639Z,0.90
2022-11-21T01:12:56.282Z,0.80
2022-11-21T01:15:25.267Z,1.37
2022-11-21T01:17:53.038Z,2.90
2022-11-21T01:20:20.681Z,1.10
2022-11-21T01:22:48.697Z,0.80
2022-11-21T01:25:16.438Z,1.43
2022-11-21T01:27:44.116Z,3.73
2022-11-21T01:30:13.260Z,1.20
2022-11-21T01:32:42.267Z,0.97
2022-11-21T01:35:10.459Z,1.00
2022-11-21T01:37:38.122Z,2.00
2022-11-21T01:40:06.534Z,1.00
2022-11-21T01:42:50.720Z,1.40
2022-11-21T01:45:55.010Z,2.00
2022-11-21T01:48:30.143Z,1.00
2022-11-21T01:51:01.681Z,1.00
2022-11-21T01:53:29.409Z,2.67
2022-11-21T01:55:57.123Z,2.27
2022-11-21T01:58:25.327Z,1.20
2022-11-21T02:00:53.361Z,1.93
2022-11-21T02:03:25.831Z,1.37
2022-11-21T02:05:55.538Z,1.50
2022-11-21T02:08:26.109Z,1.00
2022-11-21T02:11:03.645Z,1.27
2022-11-21T02:13:31.390Z,0.90
2022-11-21T02:15:59.279Z,3.53
2022-11-21T02:18:28.270Z,1.60
2022-11-21T02:21:02.848Z,2.70
2022-11-21T02:23:39.298Z,2.57
2022-11-21T02:26:08.538Z,2.60
2022-11-21T02:28:36.320Z,4.20
2022-11-21T02:31:03.997Z,0.90
2022-11-21T02:33:31.683Z,4.67
2022-11-21T02:36:00.782Z,0.80
2022-11-21T02:38:31.848Z,1.57
2022-11-21T02:41:10.745Z,4.10
2022-11-21T02:43:43.524Z,2.23
2022-11-21T02:46:11.355Z,1.00
2022-11-21T02:48:39.760Z,1.43
2022-11-21T02:51:10.464Z,2.93
2022-11-21T02:53:38.140Z,1.83
2022-11-21T02:56:05.995Z,1.57
2022-11-21T02:58:35.101Z,1.10
2022-11-21T03:01:02.774Z,1.40
2022-11-21T03:03:30.460Z,1.03
2022-11-21T03:05:58.141Z,1.30
2022-11-21T03:08:25.786Z,1.60
2022-11-21T03:10:53.419Z,1.20
2022-11-21T03:13:21.129Z,1.43
2022-11-21T03:15:50.102Z,1.60
2022-11-21T03:18:17.762Z,3.43
2022-11-21T03:20:45.443Z,1.00
2022-11-21T03:23:13.090Z,3.07
2022-11-21T03:25:40.790Z,1.80
2022-11-21T03:28:08.432Z,5.30
2022-11-21T03:30:36.305Z,1.13
2022-11-21T03:33:05.342Z,3.73
2022-11-21T03:35:33.070Z,2.17
2022-11-21T03:38:00.775Z,1.50
2022-11-21T03:40:28.414Z,2.13
2022-11-21T03:42:56.070Z,1.50
2022-11-21T03:45:23.792Z,2.40
2022-11-21T03:47:51.410Z,1.87
2022-11-21T03:50:21.517Z,1.23
2022-11-21T03:52:49.148Z,2.83
2022-11-21T03:55:17.036Z,6.40
2022-11-21T03:57:44.693Z,0.80
2022-11-21T04:00:14.058Z,1.43
2022-11-21T04:02:41.722Z,2.67
2022-11-21T04:05:10.054Z,1.17
2022-11-21T04:07:39.072Z,1.40
2022-11-21T04:10:07.592Z,1.57
2022-11-21T04:12:35.328Z,1.40
2022-11-21T04:15:03.080Z,2.50
2022-11-21T04:17:31.877Z,3.80
2022-11-21T04:19:59.538Z,1.93
2022-11-21T04:22:27.190Z,7.73
2022-11-21T04:24:56.160Z,2.70
2022-11-21T04:27:23.827Z,1.93
2022-11-21T04:29:51.501Z,1.47
2022-11-21T04:32:19.254Z,3.67
2022-11-21T04:34:46.877Z,0.87
2022-11-21T04:37:14.579Z,2.27
2022-11-21T04:39:42.280Z,1.13
2022-11-21T04:42:11.278Z,1.47
2022-11-21T04:44:39.186Z,4.00
2022-11-21T04:47:07.056Z,1.20
2022-11-21T04:49:35.832Z,1.13
2022-11-21T04:52:03.612Z,2.33
2022-11-21T04:54:31.526Z,3.23
2022-11-21T04:56:59.348Z,1.63
2022-11-21T04:59:28.440Z,3.57
2022-11-21T05:01:56.122Z,5.63
2022-11-21T05:04:26.316Z,1.93
2022-11-21T05:06:54.286Z,2.50
2022-11-21T05:09:21.935Z,4.43
2022-11-21T05:12:06.995Z,5.73
2022-11-21T05:14:35.988Z,2.80
2022-11-21T05:17:03.613Z,2.40
2022-11-21T05:19:31.464Z,0.70
2022-11-21T05:21:59.105Z,1.73
2022-11-21T05:24:27.058Z,1.70
2022-11-21T05:26:55.486Z,0.90
2022-11-21T05:29:27.881Z,2.40
2022-11-21T05:31:57.482Z,2.57
2022-11-21T05:34:25.614Z,1.07
2022-11-21T05:36:57.020Z,0.97
2022-11-21T05:39:24.853Z,1.43
2022-11-21T05:41:52.862Z,2.30
2022-11-21T05:44:19.785Z,2.13
2022-11-21T05:46:47.727Z,0.90
2022-11-21T05:49:16.730Z,5.33
2022-11-21T05:51:44.367Z,1.73
2022-11-21T05:54:14.611Z,3.47
2022-11-21T05:56:42.607Z,0.77
2022-11-21T05:59:17.001Z,4.83
2022-11-21T06:02:07.501Z,1.10
2022-11-21T06:04:37.604Z,1.00
2022-11-21T06:07:06.094Z,3.57
2022-11-21T06:09:33.793Z,2.33
2022-11-21T06:12:01.449Z,3.77
2022-11-21T06:14:29.322Z,1.97
2022-11-21T06:16:58.562Z,0.90
2022-11-21T06:19:26.349Z,1.90
2022-11-21T06:21:55.360Z,3.03
2022-11-21T06:24:23.222Z,1.10
2022-11-21T06:26:50.887Z,2.70
2022-11-21T06:29:18.520Z,2.17
2022-11-21T06:31:46.493Z,2.87
2022-11-21T06:34:14.189Z,1.27
2022-11-21T06:36:42.051Z,2.07
2022-11-21T06:39:11.151Z,1.27
2022-11-21T06:41:38.873Z,1.00
2022-11-21T06:44:06.587Z,1.63
2022-11-21T06:46:34.256Z,1.60
2022-11-21T06:49:02.071Z,3.47
2022-11-21T06:51:29.760Z,1.57
2022-11-21T06:53:59.117Z,2.93
2022-11-21T06:56:30.209Z,1.80
2022-11-21T06:58:58.159Z,2.10
2022-11-21T07:01:26.443Z,3.93
2022-11-21T07:03:54.256Z,1.90
2022-11-21T07:06:22.026Z,2.10
2022-11-21T07:09:17.577Z,2.20
2022-11-21T07:11:42.674Z,1.50
2022-11-21T07:14:09.730Z,3.37
2022-11-21T07:16:38.072Z,2.40
2022-11-21T07:19:05.736Z,2.03
2022-11-21T07:21:33.412Z,3.80
2022-11-21T07:24:01.061Z,1.33
2022-11-21T07:26:28.754Z,2.23
2022-11-21T07:28:57.755Z,1.40
2022-11-21T07:31:25.424Z,2.07
2022-11-21T07:33:53.101Z,2.60
2022-11-21T07:36:20.764Z,3.13
2022-11-21T07:38:48.401Z,1.50
2022-11-21T07:41:16.025Z,1.33
2022-11-21T07:43:43.695Z,2.10
2022-11-21T07:46:12.696Z,1.23
2022-11-21T07:48:40.323Z,0.90
2022-11-21T07:51:08.087Z,2.20
2022-11-21T07:53:35.714Z,1.87
2022-11-21T07:56:04.771Z,3.40
2022-11-21T07:58:32.418Z,1.03
2022-11-21T08:01:00.060Z,1.87
2022-11-21T08:03:29.070Z,1.20
2022-11-21T08:05:56.731Z,1.23
2022-11-21T08:08:24.361Z,1.77
2022-11-21T08:10:52.341Z,3.03
2022-11-21T08:13:20.116Z,0.90
2022-11-21T08:15:47.821Z,1.83
2022-11-21T08:18:18.946Z,2.40
2022-11-21T08:20:48.121Z,1.33
2022-11-21T08:23:16.188Z,3.23
2022-11-21T08:25:45.070Z,1.00
2022-11-21T08:28:13.326Z,2.80
2022-11-21T08:30:41.586Z,2.07
2022-11-21T08:33:09.688Z,1.20
2022-11-21T08:35:38.595Z,1.40
2022-11-21T08:38:07.873Z,1.70
2022-11-21T08:40:36.719Z,1.43
2022-11-21T08:43:07.463Z,0.87
2022-11-21T08:45:36.104Z,1.30
2022-11-21T08:48:04.251Z,0.70
2022-11-21T08:50:32.455Z,1.77
2022-11-21T08:53:01.412Z,2.00
2022-11-21T08:55:30.880Z,1.20
2022-11-21T08:57:58.616Z,1.43
2022-11-21T09:00:26.483Z,1.03
2022-11-21T09:02:54.255Z,1.73
2022-11-21T09:05:22.015Z,2.03
2022-11-21T09:07:49.778Z,1.73
2022-11-21T09:10:17.543Z,2.53
2022-11-21T09:12:46.675Z,1.80
2022-11-21T09:15:31.963Z,0.90
2022-11-21T09:18:04.665Z,4.80
2022-11-21T09:20:34.052Z,3.13
2022-11-21T09:23:05.289Z,1.30
2022-11-21T09:25:33.024Z,3.80
2022-11-21T09:28:03.245Z,2.00
2022-11-21T09:30:30.892Z,2.23
2022-11-21T09:33:01.554Z,1.97
2022-11-21T09:35:29.495Z,1.37
2022-11-21T09:37:57.155Z,2.70
2022-11-21T09:40:25.418Z,2.27
2022-11-21T09:43:15.935Z,1.50
2022-11-21T09:45:48.974Z,0.90
2022-11-21T09:48:20.351Z,1.07
2022-11-21T09:50:54.005Z,2.47
2022-11-21T09:53:26.332Z,3.10
2022-11-21T09:55:59.527Z,2.30
2022-11-21T09:58:33.757Z,2.40
2022-11-21T10:01:03.000Z,2.00
2022-11-21T10:03:33.936Z,2.30
2022-11-21T10:06:05.645Z,1.30
2022-11-21T10:08:42.860Z,2.67
2022-11-21T10:11:20.285Z,2.43
2022-11-21T10:13:58.535Z,1.23
2022-11-21T10:16:40.737Z,1.93
2022-11-21T10:19:29.046Z,1.67
2022-11-21T10:22:09.803Z,3.63
2022-11-21T10:24:44.893Z,2.13
2022-11-21T10:27:16.972Z,2.20
2022-11-21T10:29:53.160Z,2.17
2022-11-21T10:32:25.922Z,6.00
2022-11-21T10:34:58.972Z,3.27
2022-11-21T10:37:36.326Z,2.20
2022-11-21T10:40:15.796Z,3.53
2022-11-21T10:42:51.132Z,2.30
2022-11-21T10:45:18.748Z,1.47
2022-11-21T10:47:49.327Z,2.43
2022-11-21T10:50:38.258Z,1.90
2022-11-21T10:53:34.921Z,2.63
2022-11-21T10:56:05.521Z,4.63
2022-11-21T10:58:42.325Z,1.73
2022-11-21T11:01:21.688Z,4.50
2022-11-21T11:04:26.795Z,2.83
2022-11-21T11:06:53.798Z,1.80
2022-11-21T11:09:30.303Z,2.40
2022-11-21T11:12:45.589Z,6.90
2022-11-21T11:15:22.282Z,2.73
2022-11-21T11:17:56.079Z,3.87
2022-11-21T11:20:35.264Z,4.07
2022-11-21T11:23:26.628Z,4.00
2022-11-21T11:25:56.033Z,2.70
2022-11-21T11:28:25.011Z,2.27
2022-11-21T11:30:54.827Z,1.20
2022-11-21T11:33:31.380Z,1.33
2022-11-21T11:36:11.048Z,1.53
2022-11-21T11:38:38.739Z,1.87
2022-11-21T11:41:14.161Z,4.17
2022-11-21T11:44:10.775Z,1.87
2022-11-21T11:47:04.508Z,2.13
2022-11-21T11:49:59.764Z,3.23
2022-11-21T11:52:34.017Z,4.47
2022-11-21T11:55:06.377Z,4.90
2022-11-21T11:57:37.983Z,7.47
2022-11-21T12:00:20.922Z,6.00
2022-11-21T12:02:58.252Z,5.40
2022-11-21T12:05:28.097Z,3.23
2022-11-21T12:08:40.021Z,3.63
2022-11-21T12:11:15.689Z,3.97
2022-11-21T12:13:44.732Z,3.47
2022-11-21T12:16:15.134Z,3.20
2022-11-21T12:18:52.940Z,2.53
2022-11-21T12:21:20.938Z,3.53
2022-11-21T12:23:51.897Z,4.40
2022-11-21T12:26:44.022Z,5.07
2022-11-21T12:29:23.899Z,5.47
2022-11-21T12:32:02.551Z,3.57
2022-11-21T12:34:47.110Z,2.90
2022-11-21T12:37:28.110Z,2.50
2022-11-21T12:40:01.163Z,1.30
2022-11-21T12:42:49.998Z,2.20
2022-11-21T12:45:40.905Z,4.60
2022-11-21T12:48:39.160Z,4.07
2022-11-21T12:51:36.692Z,2.00
2022-11-21T12:54:32.004Z,2.33
2022-11-21T12:57:09.894Z,3.33
2022-11-21T12:59:47.760Z,10.83
2022-11-21T13:02:27.900Z,7.37
2022-11-21T13:04:58.688Z,10.63
2022-11-21T13:07:29.631Z,4.90
2022-11-21T13:10:00.179Z,5.00
2022-11-21T13:12:36.503Z,1.73
2022-11-21T13:15:15.891Z,2.70
2022-11-21T13:17:50.440Z,2.80
2022-11-21T13:20:32.572Z,5.57
2022-11-21T13:23:01.788Z,2.27
2022-11-21T13:25:48.436Z,3.60
2022-11-21T13:28:41.747Z,2.37
2022-11-21T13:31:30.287Z,7.97
2022-11-21T13:33:58.907Z,6.73
2022-11-21T13:36:38.874Z,3.47
2022-11-21T13:39:28.644Z,2.20
2022-11-21T13:42:20.428Z,2.20
2022-11-21T13:44:50.162Z,4.77
2022-11-21T13:47:56.221Z,1.03
2022-11-21T13:50:46.520Z,3.43
2022-11-21T13:53:29.490Z,6.60
2022-11-21T13:56:00.112Z,3.13
2022-11-21T13:58:41.586Z,2.30
2022-11-21T14:01:34.089Z,2.33
2022-11-21T14:04:40.615Z,2.70
2022-11-21T14:07:27.123Z,7.03
2022-11-21T14:09:56.999Z,1.77
2022-11-21T14:12:33.636Z,1.10
2022-11-21T14:15:20.729Z,1.97
2022-11-21T14:17:52.319Z,3.13
2022-11-21T14:20:23.361Z,1.50
2022-11-21T14:23:01.252Z,7.80
2022-11-21T14:25:36.924Z,2.50
2022-11-21T14:28:07.646Z,2.80
2022-11-21T14:30:37.984Z,1.13
2022-11-21T14:33:26.607Z,2.40
2022-11-21T14:35:56.854Z,3.83
2022-11-21T14:38:25.222Z,7.30
2022-11-21T14:41:17.174Z,1.93
2022-11-21T14:43:44.899Z,2.10
2022-11-21T14:46:15.861Z,2.83
2022-11-21T14:48:44.922Z,6.27
2022-11-21T14:51:17.662Z,2.63
2022-11-21T14:53:47.137Z,1.83
2022-11-21T14:56:22.370Z,3.70
2022-11-21T14:58:51.398Z,1.40
2022-11-21T15:01:22.957Z,2.83
2022-11-21T15:03:59.372Z,5.97
2022-11-21T15:06:27.056Z,2.57
2022-11-21T15:10:05.716Z,2.77
2022-11-21T15:11:50.042Z,2.03
2022-11-21T15:14:23.860Z,4.10
2022-11-21T15:16:54.366Z,6.93
2022-11-21T15:19:25.493Z,3.97
2022-11-21T15:21:56.362Z,4.30
2022-11-21T15:24:37.423Z,1.40
2022-11-21T15:27:31.243Z,3.57
2022-11-21T15:30:04.365Z,4.23
2022-11-21T15:32:32.059Z,2.50
2022-11-21T15:35:01.532Z,5.03
2022-11-21T15:37:29.182Z,4.40
2022-11-21T15:39:56.927Z,4.13
2022-11-21T15:42:38.571Z,4.93
2022-11-21T15:45:23.807Z,2.50
2022-11-21T15:47:51.772Z,5.73
2022-11-21T15:50:23.912Z,7.20
2022-11-21T15:52:52.826Z,7.30
2022-11-21T15:55:23.245Z,4.33
2022-11-21T15:57:51.094Z,7.27
2022-11-21T16:00:19.166Z,4.93
2022-11-21T16:02:47.420Z,7.17
2022-11-21T16:05:16.908Z,7.87
2022-11-21T16:07:45.972Z,3.30
2022-11-21T16:10:21.341Z,5.47
2022-11-21T16:12:53.690Z,9.63
2022-11-21T16:15:22.012Z,11.13
2022-11-21T16:17:49.652Z,10.47
2022-11-21T16:20:17.339Z,16.90
2022-11-21T16:22:48.000Z,4.83
2022-11-21T16:25:15.906Z,7.90
2022-11-21T16:27:43.584Z,4.47
2022-11-21T16:30:14.789Z,6.40
2022-11-21T16:32:42.434Z,5.57
2022-11-21T16:35:10.622Z,3.73
2022-11-21T16:37:38.242Z,8.70
2022-11-21T16:40:08.821Z,3.10
2022-11-21T16:42:36.520Z,4.90
2022-11-21T16:45:05.335Z,7.93
2022-11-21T16:47:32.952Z,4.30
2022-11-21T16:50:00.610Z,5.30
2022-11-21T16:52:28.225Z,3.70
2022-11-21T16:54:55.900Z,9.70
2022-11-21T16:57:24.933Z,10.63
2022-11-21T16:59:52.589Z,6.50
2022-11-21T17:02:20.261Z,6.20
2022-11-21T17:04:47.930Z,6.33
2022-11-21T17:07:15.724Z,4.50
2022-11-21T17:09:45.915Z,7.50
2022-11-21T17:12:13.904Z,5.40
2022-11-21T17:14:43.158Z,3.93
2022-11-21T17:17:10.791Z,2.90
2022-11-21T17:19:38.488Z,5.63
2022-11-21T17:22:06.188Z,3.20
2022-11-21T17:24:33.987Z,6.07
2022-11-21T17:27:02.617Z,8.83
2022-11-21T17:29:30.711Z,9.70
2022-11-21T17:31:59.748Z,9.10
2022-11-21T17:34:32.724Z,9.67
2022-11-21T17:37:00.794Z,9.00
2022-11-21T17:39:30.098Z,6.17
2022-11-21T17:41:59.305Z,9.33
2022-11-21T17:44:27.292Z,9.70
2022-11-21T17:46:55.299Z,9.20
2022-11-21T17:49:24.750Z,4.37
2022-11-21T17:51:56.446Z,6.27
2022-11-21T17:54:24.670Z,8.27
2022-11-21T17:56:56.637Z,8.97
2022-11-21T17:59:24.737Z,9.43
2022-11-21T18:01:52.528Z,12.07
2022-11-21T18:04:20.663Z,11.40
2022-11-21T18:06:49.691Z,6.60
2022-11-21T18:09:17.833Z,4.13
2022-11-21T18:11:46.299Z,5.37
2022-11-21T18:14:14.720Z,4.70
2022-11-21T18:16:47.617Z,5.27
2022-11-21T18:19:18.707Z,9.13
2022-11-21T18:21:46.359Z,9.80
2022-11-21T18:24:15.324Z,4.73
2022-11-21T18:26:42.961Z,2.60
2022-11-21T18:29:35.258Z,5.50
2022-11-21T18:31:58.815Z,4.30
2022-11-21T18:34:26.450Z,1.83
2022-11-21T18:36:54.514Z,1.50
2022-11-21T18:39:25.026Z,2.17
2022-11-21T18:41:52.693Z,2.20
2022-11-21T18:44:22.572Z,4.53
2022-11-21T18:46:50.664Z,6.30
2022-11-21T18:49:18.455Z,2.63
2022-11-21T18:51:46.209Z,3.17
2022-11-21T18:54:13.836Z,1.87
2022-11-21T18:56:43.013Z,1.57
2022-11-21T18:59:11.241Z,5.53
2022-11-21T19:01:40.073Z,7.63
2022-11-21T19:04:08.607Z,7.37
2022-11-21T19:06:36.708Z,7.43
2022-11-21T19:09:05.354Z,8.47
2022-11-21T19:11:33.222Z,11.57
2022-11-21T19:14:02.357Z,9.90
2022-11-21T19:16:33.849Z,5.73
2022-11-21T19:21:49.816Z,8.20
2022-11-21T19:24:19.202Z,6.53
2022-11-21T19:26:46.940Z,9.27
2022-11-21T19:29:15.892Z,6.83
2022-11-21T19:31:46.004Z,8.30
2022-11-21T19:34:14.189Z,5.63
2022-11-21T19:36:42.143Z,5.40
2022-11-21T19:39:10.100Z,6.67
2022-11-21T19:41:38.201Z,5.60
2022-11-21T19:44:06.205Z,3.37
2022-11-21T19:46:37.037Z,4.30
2022-11-21T19:49:06.512Z,3.53
2022-11-21T19:51:36.864Z,3.10
2022-11-21T19:54:05.319Z,3.23
2022-11-21T19:56:33.696Z,3.93
2022-11-21T19:59:01.511Z,3.27
2022-11-21T20:01:30.822Z,3.17
2022-11-21T20:04:02.428Z,3.50
2022-11-21T20:06:31.980Z,3.73
2022-11-21T20:09:01.407Z,4.47
2022-11-21T20:11:31.142Z,4.27
2022-11-21T20:13:59.478Z,4.13
2022-11-21T20:16:28.850Z,6.90
2022-11-21T20:18:58.992Z,7.00
2022-11-21T20:21:28.170Z,6.17
2022-11-21T20:23:56.406Z,4.73
2022-11-21T20:26:25.030Z,3.90
2022-11-21T20:28:53.217Z,5.10
2022-11-21T20:31:22.814Z,4.10
2022-11-21T20:33:51.817Z,4.90
2022-11-21T20:36:21.327Z,4.87
2022-11-21T20:38:52.614Z,5.40
2022-11-21T20:41:20.829Z,3.50
2022-11-21T20:46:36.578Z,6.63
2022-11-21T20:49:04.311Z,4.73
2022-11-21T20:54:20.983Z,11.80
2022-11-21T20:56:48.725Z,5.87
2022-11-21T20:59:16.484Z,5.17
2022-11-21T21:01:44.257Z,10.57
2022-11-21T21:04:12.130Z,7.07
2022-11-21T21:06:40.030Z,13.13
2022-11-21T21:09:07.827Z,7.67
2022-11-21T21:11:51.480Z,6.03
2022-11-21T21:14:20.091Z,7.50
2022-11-21T21:16:47.778Z,4.77
2022-11-21T21:19:15.561Z,4.97
2022-11-21T21:21:43.211Z,7.90
2022-11-21T21:24:12.108Z,4.23
2022-11-21T21:26:43.657Z,3.73
2022-11-21T21:29:12.785Z,10.30
2022-11-21T21:31:45.263Z,4.50
2022-11-21T21:34:17.686Z,5.03
2022-11-21T21:36:45.447Z,4.40
2022-11-21T21:39:19.295Z,3.73
2022-11-21T21:41:48.375Z,5.03
2022-11-21T21:44:16.642Z,4.87
2022-11-21T21:46:45.213Z,5.87
2022-11-21T21:49:13.280Z,5.00
2022-11-21T21:51:41.302Z,4.40
2022-11-21T21:54:17.437Z,6.03
2022-11-21T21:56:46.609Z,5.07
2022-11-21T21:59:17.936Z,5.30
2022-11-21T22:01:45.717Z,3.73
2022-11-21T22:04:13.579Z,4.33
2022-11-21T22:06:41.484Z,4.23
2022-11-21T22:09:09.372Z,4.93
2022-11-21T22:11:38.362Z,3.60
2022-11-21T22:14:08.019Z,3.87
2022-11-21T22:16:37.054Z,6.07
2022-11-21T22:19:04.720Z,3.80
2022-11-21T22:21:34.204Z,4.00
2022-11-21T22:26:51.514Z,6.50
2022-11-21T22:29:19.225Z,10.17
2022-11-21T22:31:48.235Z,4.50
2022-11-21T22:34:15.934Z,5.80
2022-11-21T22:36:44.646Z,5.00
2022-11-21T22:39:12.283Z,3.07
2022-11-21T22:41:39.966Z,5.30
2022-11-21T22:44:09.913Z,7.73
2022-11-21T22:46:37.591Z,3.90
2022-11-21T22:49:06.701Z,2.77
2022-11-21T22:51:34.632Z,3.00
2022-11-21T22:54:02.414Z,3.50
2022-11-21T22:56:30.121Z,6.23
2022-11-21T22:58:57.808Z,7.37
2022-11-21T23:01:26.994Z,5.07
2022-11-21T23:03:56.524Z,2.83
2022-11-21T23:06:27.349Z,4.13
2022-11-21T23:08:56.475Z,2.80
2022-11-21T23:11:26.054Z,4.07
2022-11-21T23:13:54.582Z,4.63
2022-11-21T23:16:23.172Z,5.33
2022-11-21T23:18:53.421Z,3.20
2022-11-21T23:21:21.578Z,3.77
2022-11-21T23:23:50.935Z,4.53
2022-11-21T23:26:18.598Z,6.10
2022-11-21T23:28:46.311Z,2.97
2022-11-21T23:31:14.015Z,3.83
2022-11-21T23:33:41.749Z,3.93
2022-11-21T23:36:09.605Z,3.43
2022-11-21T23:38:37.543Z,3.30
2022-11-21T23:41:09.256Z,6.60
2022-11-21T23:43:37.411Z,4.30
2022-11-21T23:46:05.117Z,5.20
2022-11-21T23:48:32.818Z,3.90
2022-11-21T23:51:00.512Z,6.10
2022-11-21T23:53:28.150Z,4.30
2022-11-21T23:55:55.846Z,5.90
2022-11-21T23:58:24.833Z,2.93
